sensor_id;sensor_type;location;lat;lon;timestamp;pressure;altitude;pressure_sealevel;temperature;humidity
11077;BME280;5591;42.626;23.380;2024-02-23T00:42:00;93908.34;;;7.84;100.00
11077;BME280;5591;42.626;23.380;2024-02-23T00:44:27;93896.69;;;8.59;100.00
11077;BME280;5591;42.626;23.380;2024-02-23T00:46:54;93895.81;;;8.73;100.00
11077;BME280;5591;42.626;23.380;2024-02-23T00:49:23;93884.78;;;8.56;99.33
11077;BME280;5591;42.626;23.380;2024-02-23T00:51:50;93872.88;;;8.04;100.00
11077;BME280;5591;42.626;23.380;2024-02-23T00:54:16;93889.06;;;8.28;100.00
11077;BME280;5591;42.626;23.380;2024-02-23T00:56:43;93885.13;;;8.68;100.00
11077;BME280;5591;42.626;23.380;2024-02-23T00:59:11;93880.50;;;8.70;100.00
11077;BME280;5591;42.626;23.380;2024-02-23T01:01:38;93880.47;;;8.84;99.08
11077;BME280;5591;42.626;23.380;2024-02-23T01:04:05;93882.75;;;8.94;97.46
11077;BME280;5591;42.626;23.380;2024-02-23T01:06:31;93868.63;;;8.88;98.96
11077;BME280;5591;42.626;23.380;2024-02-23T01:08:58;93878.47;;;8.51;100.00
11077;BME280;5591;42.626;23.380;2024-02-23T01:11:25;93861.91;;;8.44;100.00
11077;BME280;5591;42.626;23.380;2024-02-23T01:13:51;93868.50;;;8.75;100.00
11077;BME280;5591;42.626;23.380;2024-02-23T01:16:19;93875.38;;;8.62;100.00
11077;BME280;5591;42.626;23.380;2024-02-23T01:18:46;93860.50;;;8.27;100.00
11077;BME280;5591;42.626;23.380;2024-02-23T01:21:13;93878.97;;;8.40;100.00
11077;BME280;5591;42.626;23.380;2024-02-23T01:23:40;93881.97;;;8.22;100.00
11077;BME280;5591;42.626;23.380;2024-02-23T01:26:07;93876.91;;;8.06;100.00
11077;BME280;5591;42.626;23.380;2024-02-23T01:28:33;93865.34;;;8.15;100.00
11077;BME280;5591;42.626;23.380;2024-02-23T01:31:00;93865.19;;;8.31;100.00
11077;BME280;5591;42.626;23.380;2024-02-23T01:33:28;93872.97;;;8.81;100.00
11077;BME280;5591;42.626;23.380;2024-02-23T01:35:55;93865.31;;;8.59;100.00
11077;BME280;5591;42.626;23.380;2024-02-23T01:38:23;93850.19;;;8.40;100.00
11077;BME280;5591;42.626;23.380;2024-02-23T01:40:50;93853.25;;;8.43;100.00
11077;BME280;5591;42.626;23.380;2024-02-23T01:43:17;93851.56;;;8.36;100.00
11077;BME280;5591;42.626;23.380;2024-02-23T01:45:43;93863.31;;;9.03;100.00
11077;BME280;5591;42.626;23.380;2024-02-23T01:48:10;93773.88;;;8.51;98.08
11077;BME280;5591;42.626;23.380;2024-02-23T01:50:39;93860.75;;;8.67;98.76
11077;BME280;5591;42.626;23.380;2024-02-23T01:53:06;93851.06;;;7.82;100.00
11077;BME280;5591;42.626;23.380;2024-02-23T01:55:33;93746.03;;;7.87;100.00
11077;BME280;5591;42.626;23.380;2024-02-23T01:58:00;93842.44;;;8.67;100.00
11077;BME280;5591;42.626;23.380;2024-02-23T02:00:28;93813.91;;;8.16;100.00
11077;BME280;5591;42.626;23.380;2024-02-23T02:02:56;93839.09;;;8.73;100.00
11077;BME280;5591;42.626;23.380;2024-02-23T02:05:24;93836.44;;;9.15;96.35
11077;BME280;5591;42.626;23.380;2024-02-23T02:07:53;93798.44;;;9.19;94.87
11077;BME280;5591;42.626;23.380;2024-02-23T02:10:24;93823.78;;;9.46;93.35
11077;BME280;5591;42.626;23.380;2024-02-23T02:12:51;93832.50;;;9.26;94.35
11077;BME280;5591;42.626;23.380;2024-02-23T02:15:17;93830.25;;;8.53;99.62
11077;BME280;5591;42.626;23.380;2024-02-23T02:17:45;93824.03;;;8.19;100.00
11077;BME280;5591;42.626;23.380;2024-02-23T02:20:12;93835.75;;;8.44;100.00
11077;BME280;5591;42.626;23.380;2024-02-23T02:22:39;93825.19;;;8.94;98.72
11077;BME280;5591;42.626;23.380;2024-02-23T02:25:08;93825.88;;;8.25;100.00
11077;BME280;5591;42.626;23.380;2024-02-23T02:27:34;93822.13;;;8.48;100.00
11077;BME280;5591;42.626;23.380;2024-02-23T02:30:01;93830.41;;;8.52;100.00
11077;BME280;5591;42.626;23.380;2024-02-23T02:32:28;93833.47;;;8.20;100.00
11077;BME280;5591;42.626;23.380;2024-02-23T02:34:54;93831.91;;;8.40;100.00
11077;BME280;5591;42.626;23.380;2024-02-23T02:37:21;93827.19;;;8.92;99.08
11077;BME280;5591;42.626;23.380;2024-02-23T02:39:48;93842.06;;;9.12;96.79
11077;BME280;5591;42.626;23.380;2024-02-23T02:42:16;93846.06;;;9.08;95.63
11077;BME280;5591;42.626;23.380;2024-02-23T02:44:43;93839.69;;;9.17;94.91
11077;BME280;5591;42.626;23.380;2024-02-23T02:47:09;93836.03;;;8.70;98.25
11077;BME280;5591;42.626;23.380;2024-02-23T02:49:36;93836.00;;;7.99;100.00
11077;BME280;5591;42.626;23.380;2024-02-23T02:52:03;93825.47;;;8.21;100.00
11077;BME280;5591;42.626;23.380;2024-02-23T02:54:30;93825.09;;;8.10;100.00
11077;BME280;5591;42.626;23.380;2024-02-23T02:56:56;93826.03;;;8.73;100.00
11077;BME280;5591;42.626;23.380;2024-02-23T02:59:25;93839.84;;;8.88;99.88
11077;BME280;5591;42.626;23.380;2024-02-23T03:01:51;93842.06;;;8.70;99.38
11077;BME280;5591;42.626;23.380;2024-02-23T03:04:18;93839.06;;;8.17;100.00
11077;BME280;5591;42.626;23.380;2024-02-23T03:06:45;93825.44;;;8.57;100.00
11077;BME280;5591;42.626;23.380;2024-02-23T03:09:12;93826.13;;;8.86;99.91
11077;BME280;5591;42.626;23.380;2024-02-23T03:11:38;93839.09;;;8.94;99.32
11077;BME280;5591;42.626;23.380;2024-02-23T03:14:05;93829.69;;;8.79;98.79
11077;BME280;5591;42.626;23.380;2024-02-23T03:16:33;93832.38;;;8.29;100.00
11077;BME280;5591;42.626;23.380;2024-02-23T03:19:01;93836.19;;;8.47;100.00
11077;BME280;5591;42.626;23.380;2024-02-23T03:21:28;93838.44;;;8.71;100.00
11077;BME280;5591;42.626;23.380;2024-02-23T03:23:55;93847.16;;;8.07;100.00
11077;BME280;5591;42.626;23.380;2024-02-23T03:26:21;93800.66;;;8.03;100.00
11077;BME280;5591;42.626;23.380;2024-02-23T03:28:48;93840.44;;;8.48;100.00
11077;BME280;5591;42.626;23.380;2024-02-23T03:31:15;93846.13;;;8.73;100.00
11077;BME280;5591;42.626;23.380;2024-02-23T03:33:44;93835.16;;;8.84;100.00
11077;BME280;5591;42.626;23.380;2024-02-23T03:36:10;93831.47;;;8.99;99.51
11077;BME280;5591;42.626;23.380;2024-02-23T03:38:37;93841.09;;;9.20;97.32
11077;BME280;5591;42.626;23.380;2024-02-23T03:41:04;93841.44;;;8.89;98.47
11077;BME280;5591;42.626;23.380;2024-02-23T03:43:31;93848.75;;;8.94;98.74
11077;BME280;5591;42.626;23.380;2024-02-23T03:45:59;93852.53;;;9.12;97.71
11077;BME280;5591;42.626;23.380;2024-02-23T03:48:25;93837.34;;;9.01;97.49
11077;BME280;5591;42.626;23.380;2024-02-23T03:50:53;93732.41;;;8.06;100.00
11077;BME280;5591;42.626;23.380;2024-02-23T03:53:20;93837.63;;;9.34;97.24
11077;BME280;5591;42.626;23.380;2024-02-23T03:55:47;93849.19;;;8.76;100.00
11077;BME280;5591;42.626;23.380;2024-02-23T03:58:14;93850.88;;;8.84;100.00
11077;BME280;5591;42.626;23.380;2024-02-23T04:00:40;93841.22;;;9.05;99.30
11077;BME280;5591;42.626;23.380;2024-02-23T04:03:07;93853.81;;;8.95;99.02
11077;BME280;5591;42.626;23.380;2024-02-23T04:05:34;93840.84;;;8.66;100.00
11077;BME280;5591;42.626;23.380;2024-02-23T04:08:02;93831.66;;;8.56;100.00
11077;BME280;5591;42.626;23.380;2024-02-23T04:10:29;93850.13;;;9.11;100.00
11077;BME280;5591;42.626;23.380;2024-02-23T04:12:57;93856.69;;;8.65;100.00
11077;BME280;5591;42.626;23.380;2024-02-23T04:15:23;93856.41;;;8.74;100.00
11077;BME280;5591;42.626;23.380;2024-02-23T04:17:50;93844.94;;;7.90;100.00
11077;BME280;5591;42.626;23.380;2024-02-23T04:20:17;93816.44;;;8.24;100.00
11077;BME280;5591;42.626;23.380;2024-02-23T04:22:44;93847.19;;;8.99;100.00
11077;BME280;5591;42.626;23.380;2024-02-23T04:25:13;93867.88;;;8.94;100.00
11077;BME280;5591;42.626;23.380;2024-02-23T04:27:39;93844.47;;;8.30;100.00
11077;BME280;5591;42.626;23.380;2024-02-23T04:30:07;93841.22;;;8.13;100.00
11077;BME280;5591;42.626;23.380;2024-02-23T04:32:34;93848.63;;;7.81;100.00
11077;BME280;5591;42.626;23.380;2024-02-23T04:35:00;93855.88;;;8.43;100.00
11077;BME280;5591;42.626;23.380;2024-02-23T04:37:27;93855.28;;;8.27;100.00
11077;BME280;5591;42.626;23.380;2024-02-23T04:39:54;93861.50;;;8.11;100.00
11077;BME280;5591;42.626;23.380;2024-02-23T04:42:22;93853.38;;;7.92;100.00
11077;BME280;5591;42.626;23.380;2024-02-23T04:44:48;93856.16;;;8.34;100.00
11077;BME280;5591;42.626;23.380;2024-02-23T04:47:18;93851.66;;;8.13;100.00
11077;BME280;5591;42.626;23.380;2024-02-23T04:49:44;93861.50;;;8.11;100.00
11077;BME280;5591;42.626;23.380;2024-02-23T04:52:11;93866.53;;;8.13;100.00
11077;BME280;5591;42.626;23.380;2024-02-23T04:54:38;93853.75;;;8.18;100.00
11077;BME280;5591;42.626;23.380;2024-02-23T04:57:04;93839.63;;;7.69;100.00
11077;BME280;5591;42.626;23.380;2024-02-23T04:59:33;93850.63;;;7.79;100.00
11077;BME280;5591;42.626;23.380;2024-02-23T05:01:59;93850.06;;;8.12;100.00
11077;BME280;5591;42.626;23.380;2024-02-23T05:04:26;93780.47;;;7.76;100.00
11077;BME280;5591;42.626;23.380;2024-02-23T05:06:53;93868.25;;;7.62;100.00
11077;BME280;5591;42.626;23.380;2024-02-23T05:09:20;93864.13;;;7.68;100.00
11077;BME280;5591;42.626;23.380;2024-02-23T05:11:47;93864.84;;;7.62;100.00
11077;BME280;5591;42.626;23.380;2024-02-23T05:14:14;93849.84;;;8.28;100.00
11077;BME280;5591;42.626;23.380;2024-02-23T05:16:42;93834.75;;;7.95;100.00
11077;BME280;5591;42.626;23.380;2024-02-23T05:19:08;93877.97;;;8.12;100.00
11077;BME280;5591;42.626;23.380;2024-02-23T05:21:35;93892.13;;;8.03;100.00
11077;BME280;5591;42.626;23.380;2024-02-23T05:24:02;93886.75;;;8.19;100.00
11077;BME280;5591;42.626;23.380;2024-02-23T05:26:31;93888.00;;;8.23;100.00
11077;BME280;5591;42.626;23.380;2024-02-23T05:28:58;93879.06;;;8.67;100.00
11077;BME280;5591;42.626;23.380;2024-02-23T05:31:45;93890.81;;;8.57;100.00
11077;BME280;5591;42.626;23.380;2024-02-23T05:34:12;93876.66;;;8.30;100.00
11077;BME280;5591;42.626;23.380;2024-02-23T05:36:39;93876.44;;;8.67;100.00
11077;BME280;5591;42.626;23.380;2024-02-23T05:39:06;93892.16;;;8.88;100.00
11077;BME280;5591;42.626;23.380;2024-02-23T05:41:37;93891.53;;;9.28;100.00
11077;BME280;5591;42.626;23.380;2024-02-23T05:44:04;93898.63;;;8.92;100.00
11077;BME280;5591;42.626;23.380;2024-02-23T05:46:32;93892.81;;;8.55;100.00
11077;BME280;5591;42.626;23.380;2024-02-23T05:49:00;93888.38;;;9.33;99.47
11077;BME280;5591;42.626;23.380;2024-02-23T05:51:28;93902.63;;;8.88;98.60
11077;BME280;5591;42.626;23.380;2024-02-23T05:53:55;93900.13;;;9.01;100.00
11077;BME280;5591;42.626;23.380;2024-02-23T05:56:22;93913.06;;;9.24;98.98
11077;BME280;5591;42.626;23.380;2024-02-23T05:58:50;93896.59;;;9.09;99.31
11077;BME280;5591;42.626;23.380;2024-02-23T06:01:17;93894.66;;;9.38;96.48
11077;BME280;5591;42.626;23.380;2024-02-23T06:03:44;93903.09;;;9.88;93.15
11077;BME280;5591;42.626;23.380;2024-02-23T06:06:11;93906.31;;;9.90;91.49
11077;BME280;5591;42.626;23.380;2024-02-23T06:08:39;93915.47;;;10.01;90.37
11077;BME280;5591;42.626;23.380;2024-02-23T06:11:06;93916.44;;;10.00;89.25
11077;BME280;5591;42.626;23.380;2024-02-23T06:13:32;93916.31;;;10.42;86.89
11077;BME280;5591;42.626;23.380;2024-02-23T06:15:59;93910.34;;;10.61;84.54
11077;BME280;5591;42.626;23.380;2024-02-23T06:18:26;93922.56;;;9.31;90.90
11077;BME280;5591;42.626;23.380;2024-02-23T06:20:52;93919.00;;;9.87;94.07
11077;BME280;5591;42.626;23.380;2024-02-23T06:23:20;93922.75;;;10.33;85.78
11077;BME280;5591;42.626;23.380;2024-02-23T06:25:48;93940.41;;;10.58;83.41
11077;BME280;5591;42.626;23.380;2024-02-23T06:28:15;93932.06;;;10.89;81.10
11077;BME280;5591;42.626;23.380;2024-02-23T06:30:42;93926.34;;;10.32;83.27
11077;BME280;5591;42.626;23.380;2024-02-23T06:33:08;93927.38;;;10.37;86.01
11077;BME280;5591;42.626;23.380;2024-02-23T06:35:35;93929.66;;;10.47;82.42
11077;BME280;5591;42.626;23.380;2024-02-23T06:38:02;93850.97;;;10.47;78.49
11077;BME280;5591;42.626;23.380;2024-02-23T06:40:30;93934.75;;;11.28;76.90
11077;BME280;5591;42.626;23.380;2024-02-23T06:42:56;93935.63;;;11.54;74.51
11077;BME280;5591;42.626;23.380;2024-02-23T06:45:23;93929.81;;;11.78;73.08
11077;BME280;5591;42.626;23.380;2024-02-23T06:47:51;93929.16;;;12.09;71.51
11077;BME280;5591;42.626;23.380;2024-02-23T06:50:18;93929.75;;;11.52;72.75
11077;BME280;5591;42.626;23.380;2024-02-23T06:52:44;93921.53;;;11.68;72.53
11077;BME280;5591;42.626;23.380;2024-02-23T06:55:13;93921.47;;;11.49;72.83
11077;BME280;5591;42.626;23.380;2024-02-23T06:57:41;93938.25;;;12.13;71.94
11077;BME280;5591;42.626;23.380;2024-02-23T07:00:09;93927.28;;;12.41;69.60
11077;BME280;5591;42.626;23.380;2024-02-23T07:02:36;93897.25;;;11.79;71.10
11077;BME280;5591;42.626;23.380;2024-02-23T07:05:03;93926.09;;;12.18;69.70
11077;BME280;5591;42.626;23.380;2024-02-23T07:07:30;93929.34;;;12.27;69.16
11077;BME280;5591;42.626;23.380;2024-02-23T07:09:58;93931.03;;;11.69;72.98
11077;BME280;5591;42.626;23.380;2024-02-23T07:12:25;93928.97;;;12.17;71.04
11077;BME280;5591;42.626;23.380;2024-02-23T07:14:53;93939.63;;;12.34;69.12
11077;BME280;5591;42.626;23.380;2024-02-23T07:17:20;93924.06;;;11.23;72.29
11077;BME280;5591;42.626;23.380;2024-02-23T07:19:47;93928.19;;;11.90;72.58
11077;BME280;5591;42.626;23.380;2024-02-23T07:22:13;93916.91;;;12.59;69.97
11077;BME280;5591;42.626;23.380;2024-02-23T07:24:41;93919.34;;;13.11;66.85
11077;BME280;5591;42.626;23.380;2024-02-23T07:27:08;93922.38;;;13.08;66.09
11077;BME280;5591;42.626;23.380;2024-02-23T07:29:35;93926.13;;;12.94;66.04
11077;BME280;5591;42.626;23.380;2024-02-23T07:32:04;93906.53;;;12.77;65.87
11077;BME280;5591;42.626;23.380;2024-02-23T07:34:31;93906.22;;;12.92;65.30
11077;BME280;5591;42.626;23.380;2024-02-23T07:36:58;93919.78;;;12.45;68.47
11077;BME280;5591;42.626;23.380;2024-02-23T07:39:24;93906.41;;;12.53;67.48
11077;BME280;5591;42.626;23.380;2024-02-23T07:41:52;93905.41;;;13.04;68.24
11077;BME280;5591;42.626;23.380;2024-02-23T07:44:18;93919.44;;;13.60;66.27
11077;BME280;5591;42.626;23.380;2024-02-23T07:46:45;93919.06;;;13.57;65.36
11077;BME280;5591;42.626;23.380;2024-02-23T07:49:13;93920.09;;;13.80;66.97
11077;BME280;5591;42.626;23.380;2024-02-23T07:51:40;93929.72;;;13.37;64.54
11077;BME280;5591;42.626;23.380;2024-02-23T07:54:06;93915.91;;;13.11;68.97
11077;BME280;5591;42.626;23.380;2024-02-23T07:56:33;93908.19;;;13.47;69.40
11077;BME280;5591;42.626;23.380;2024-02-23T07:59:00;93816.41;;;13.37;66.75
11077;BME280;5591;42.626;23.380;2024-02-23T08:01:28;93911.03;;;13.45;67.78
11077;BME280;5591;42.626;23.380;2024-02-23T08:03:56;93911.44;;;14.22;67.46
11077;BME280;5591;42.626;23.380;2024-02-23T08:06:25;93915.31;;;13.95;64.87
11077;BME280;5591;42.626;23.380;2024-02-23T08:08:52;93919.81;;;12.89;70.44
11077;BME280;5591;42.626;23.380;2024-02-23T08:11:20;93910.50;;;13.61;69.44
11077;BME280;5591;42.626;23.380;2024-02-23T08:13:47;93905.34;;;13.97;67.02
11077;BME280;5591;42.626;23.380;2024-02-23T08:16:16;93926.94;;;13.88;67.83
11077;BME280;5591;42.626;23.380;2024-02-23T08:18:42;93912.94;;;13.87;69.15
11077;BME280;5591;42.626;23.380;2024-02-23T08:21:09;93909.97;;;13.22;71.26
11077;BME280;5591;42.626;23.380;2024-02-23T08:23:38;93913.47;;;13.40;69.46
11077;BME280;5591;42.626;23.380;2024-02-23T08:26:05;93916.06;;;14.02;67.66
11077;BME280;5591;42.626;23.380;2024-02-23T08:28:32;93912.63;;;14.02;68.13
11077;BME280;5591;42.626;23.380;2024-02-23T08:30:59;93882.00;;;13.76;66.97
11077;BME280;5591;42.626;23.380;2024-02-23T08:33:25;93903.63;;;14.34;65.23
11077;BME280;5591;42.626;23.380;2024-02-23T08:35:52;93912.13;;;14.36;64.89
11077;BME280;5591;42.626;23.380;2024-02-23T08:38:19;93910.94;;;14.32;64.17
11077;BME280;5591;42.626;23.380;2024-02-23T08:40:47;93916.69;;;14.65;64.42
11077;BME280;5591;42.626;23.380;2024-02-23T08:43:14;93920.91;;;15.19;61.90
11077;BME280;5591;42.626;23.380;2024-02-23T08:45:41;93865.09;;;14.44;62.89
11077;BME280;5591;42.626;23.380;2024-02-23T08:48:08;93908.56;;;14.95;59.94
11077;BME280;5591;42.626;23.380;2024-02-23T08:50:34;93909.44;;;14.60;62.29
11077;BME280;5591;42.626;23.380;2024-02-23T08:53:03;93907.31;;;14.26;61.08
11077;BME280;5591;42.626;23.380;2024-02-23T08:55:30;93836.13;;;14.20;60.89
11077;BME280;5591;42.626;23.380;2024-02-23T08:57:59;93907.50;;;15.03;60.16
11077;BME280;5591;42.626;23.380;2024-02-23T09:00:26;93911.41;;;15.30;59.52
11077;BME280;5591;42.626;23.380;2024-02-23T09:02:53;93906.09;;;14.83;61.05
11077;BME280;5591;42.626;23.380;2024-02-23T09:05:19;93911.63;;;15.58;60.07
11077;BME280;5591;42.626;23.380;2024-02-23T09:07:47;93903.63;;;15.35;59.79
11077;BME280;5591;42.626;23.380;2024-02-23T09:10:13;93890.31;;;16.05;58.38
11077;BME280;5591;42.626;23.380;2024-02-23T09:12:40;93895.03;;;15.21;58.17
11077;BME280;5591;42.626;23.380;2024-02-23T09:15:09;93897.00;;;15.55;60.68
11077;BME280;5591;42.626;23.380;2024-02-23T09:17:36;93904.94;;;16.31;56.88
11077;BME280;5591;42.626;23.380;2024-02-23T09:20:03;93892.75;;;16.41;57.18
11077;BME280;5591;42.626;23.380;2024-02-23T09:22:30;93889.75;;;16.03;57.24
11077;BME280;5591;42.626;23.380;2024-02-23T09:24:56;93886.88;;;16.16;55.80
11077;BME280;5591;42.626;23.380;2024-02-23T09:27:23;93882.63;;;17.01;54.90
11077;BME280;5591;42.626;23.380;2024-02-23T09:29:50;93903.75;;;15.81;54.79
11077;BME280;5591;42.626;23.380;2024-02-23T09:32:18;93898.66;;;15.68;53.29
11077;BME280;5591;42.626;23.380;2024-02-23T09:34:45;93902.16;;;16.03;53.88
11077;BME280;5591;42.626;23.380;2024-02-23T09:37:11;93899.97;;;16.80;51.87
11077;BME280;5591;42.626;23.380;2024-02-23T09:39:38;93893.97;;;16.85;51.81
11077;BME280;5591;42.626;23.380;2024-02-23T09:42:08;93912.50;;;15.40;54.12
11077;BME280;5591;42.626;23.380;2024-02-23T09:44:36;93909.59;;;15.12;54.37
11077;BME280;5591;42.626;23.380;2024-02-23T09:47:04;93907.78;;;14.77;55.21
11077;BME280;5591;42.626;23.380;2024-02-23T09:49:38;93894.41;;;15.67;53.74
11077;BME280;5591;42.626;23.380;2024-02-23T09:52:07;93892.28;;;16.33;52.42
11077;BME280;5591;42.626;23.380;2024-02-23T09:54:34;93895.41;;;16.30;51.47
11077;BME280;5591;42.626;23.380;2024-02-23T09:57:02;93883.22;;;16.40;51.82
11077;BME280;5591;42.626;23.380;2024-02-23T09:59:32;93888.50;;;16.40;51.52
11077;BME280;5591;42.626;23.380;2024-02-23T10:02:00;93878.47;;;16.08;51.41
11077;BME280;5591;42.626;23.380;2024-02-23T10:04:28;93893.09;;;17.07;50.11
11077;BME280;5591;42.626;23.380;2024-02-23T10:06:57;93869.34;;;16.73;48.29
11077;BME280;5591;42.626;23.380;2024-02-23T10:09:24;93873.25;;;17.10;48.26
11077;BME280;5591;42.626;23.380;2024-02-23T10:11:52;93869.00;;;17.81;46.51
11077;BME280;5591;42.626;23.380;2024-02-23T10:14:20;93867.03;;;17.16;47.27
11077;BME280;5591;42.626;23.380;2024-02-23T10:16:46;93863.16;;;17.95;46.77
11077;BME280;5591;42.626;23.380;2024-02-23T10:19:13;93863.28;;;17.72;47.04
11077;BME280;5591;42.626;23.380;2024-02-23T10:21:40;93857.78;;;16.79;48.62
11077;BME280;5591;42.626;23.380;2024-02-23T10:24:09;93857.03;;;16.55;49.57
11077;BME280;5591;42.626;23.380;2024-02-23T10:26:36;93853.72;;;17.71;48.27
11077;BME280;5591;42.626;23.380;2024-02-23T10:29:03;93848.34;;;17.99;47.47
11077;BME280;5591;42.626;23.380;2024-02-23T10:31:34;93850.56;;;18.24;45.82
11077;BME280;5591;42.626;23.380;2024-02-23T10:34:07;93853.19;;;18.57;45.36
11077;BME280;5591;42.626;23.380;2024-02-23T10:36:40;93858.91;;;17.50;45.07
11077;BME280;5591;42.626;23.380;2024-02-23T10:39:09;93848.06;;;17.52;46.03
11077;BME280;5591;42.626;23.380;2024-02-23T10:41:36;93842.22;;;17.99;44.95
11077;BME280;5591;42.626;23.380;2024-02-23T10:44:03;93842.50;;;18.73;44.43
11077;BME280;5591;42.626;23.380;2024-02-23T10:46:31;93836.25;;;18.63;44.02
11077;BME280;5591;42.626;23.380;2024-02-23T10:48:58;93837.97;;;17.98;44.87
11077;BME280;5591;42.626;23.380;2024-02-23T10:51:25;93837.31;;;18.62;44.06
11077;BME280;5591;42.626;23.380;2024-02-23T10:53:53;93830.34;;;19.20;43.27
11077;BME280;5591;42.626;23.380;2024-02-23T10:56:21;93832.78;;;19.05;42.88
11077;BME280;5591;42.626;23.380;2024-02-23T10:58:49;93833.25;;;19.19;43.01
11077;BME280;5591;42.626;23.380;2024-02-23T11:01:17;93824.41;;;19.66;41.32
11077;BME280;5591;42.626;23.380;2024-02-23T11:03:46;93770.56;;;19.96;40.63
11077;BME280;5591;42.626;23.380;2024-02-23T11:06:16;93813.13;;;20.22;40.71
11077;BME280;5591;42.626;23.380;2024-02-23T11:08:46;93804.44;;;20.36;40.34
11077;BME280;5591;42.626;23.380;2024-02-23T11:11:15;93821.88;;;18.59;41.53
11077;BME280;5591;42.626;23.380;2024-02-23T11:13:45;93813.19;;;17.43;43.36
11077;BME280;5591;42.626;23.380;2024-02-23T11:16:21;93811.03;;;17.73;43.40
11077;BME280;5591;42.626;23.380;2024-02-23T11:18:48;93801.03;;;19.73;41.31
11077;BME280;5591;42.626;23.380;2024-02-23T11:21:15;93778.06;;;20.91;39.63
11077;BME280;5591;42.626;23.380;2024-02-23T11:23:42;93787.69;;;20.97;40.13
11077;BME280;5591;42.626;23.380;2024-02-23T11:26:10;93775.03;;;21.84;38.73
11077;BME280;5591;42.626;23.380;2024-02-23T11:28:47;93782.00;;;21.90;38.72
11077;BME280;5591;42.626;23.380;2024-02-23T11:31:14;93775.84;;;23.03;37.24
11077;BME280;5591;42.626;23.380;2024-02-23T11:33:47;93769.44;;;21.76;38.78
11077;BME280;5591;42.626;23.380;2024-02-23T11:36:22;93774.78;;;21.96;38.85
11077;BME280;5591;42.626;23.380;2024-02-23T11:38:52;93763.84;;;22.96;36.70
11077;BME280;5591;42.626;23.380;2024-02-23T11:41:20;93764.69;;;23.44;35.74
11077;BME280;5591;42.626;23.380;2024-02-23T11:43:49;93766.50;;;23.92;35.39
11077;BME280;5591;42.626;23.380;2024-02-23T11:46:15;93765.31;;;25.31;34.54
11077;BME280;5591;42.626;23.380;2024-02-23T11:48:42;93707.03;;;25.63;33.20
11077;BME280;5591;42.626;23.380;2024-02-23T11:51:09;93762.41;;;27.32;32.57
11077;BME280;5591;42.626;23.380;2024-02-23T11:53:36;93693.19;;;26.20;32.34
11077;BME280;5591;42.626;23.380;2024-02-23T11:56:04;93751.00;;;25.54;32.15
11077;BME280;5591;42.626;23.380;2024-02-23T11:58:31;93755.00;;;25.56;31.67
11077;BME280;5591;42.626;23.380;2024-02-23T12:01:00;93761.13;;;24.78;32.62
11077;BME280;5591;42.626;23.380;2024-02-23T12:03:28;93761.47;;;24.71;32.66
11077;BME280;5591;42.626;23.380;2024-02-23T12:05:56;93760.81;;;24.79;32.86
11077;BME280;5591;42.626;23.380;2024-02-23T12:08:23;93755.88;;;25.70;31.81
11077;BME280;5591;42.626;23.380;2024-02-23T12:10:51;93726.78;;;24.75;33.18
11077;BME280;5591;42.626;23.380;2024-02-23T12:13:18;93745.50;;;25.03;33.08
11077;BME280;5591;42.626;23.380;2024-02-23T12:15:45;93753.72;;;23.36;34.62
11077;BME280;5591;42.626;23.380;2024-02-23T12:18:14;93762.16;;;22.46;35.57
11077;BME280;5591;42.626;23.380;2024-02-23T12:20:41;93748.31;;;21.64;36.03
11077;BME280;5591;42.626;23.380;2024-02-23T12:23:07;93753.91;;;22.03;35.71
11077;BME280;5591;42.626;23.380;2024-02-23T12:25:35;93777.06;;;22.62;34.60
11077;BME280;5591;42.626;23.380;2024-02-23T12:28:02;93741.81;;;22.35;35.04
11077;BME280;5591;42.626;23.380;2024-02-23T12:30:29;93740.47;;;22.53;35.54
11077;BME280;5591;42.626;23.380;2024-02-23T12:33:03;93725.03;;;21.60;37.09
11077;BME280;5591;42.626;23.380;2024-02-23T12:35:31;93730.63;;;21.23;37.91
11077;BME280;5591;42.626;23.380;2024-02-23T12:37:58;93724.00;;;21.41;38.06
11077;BME280;5591;42.626;23.380;2024-02-23T12:40:24;93732.03;;;21.76;37.59
11077;BME280;5591;42.626;23.380;2024-02-23T12:42:51;93721.84;;;21.53;38.38
11077;BME280;5591;42.626;23.380;2024-02-23T12:45:18;93717.28;;;21.33;38.48
11077;BME280;5591;42.626;23.380;2024-02-23T12:47:45;93711.97;;;21.28;38.50
11077;BME280;5591;42.626;23.380;2024-02-23T12:50:12;93709.28;;;21.38;38.36
11077;BME280;5591;42.626;23.380;2024-02-23T12:52:40;93709.28;;;21.38;37.82
11077;BME280;5591;42.626;23.380;2024-02-23T12:55:07;93709.34;;;21.68;37.91
11077;BME280;5591;42.626;23.380;2024-02-23T12:57:34;93704.97;;;21.02;38.51
11077;BME280;5591;42.626;23.380;2024-02-23T13:00:01;93711.78;;;20.63;38.61
11077;BME280;5591;42.626;23.380;2024-02-23T13:02:28;93707.16;;;21.25;37.75
11077;BME280;5591;42.626;23.380;2024-02-23T13:04:55;93707.72;;;21.57;37.44
11077;BME280;5591;42.626;23.380;2024-02-23T13:07:21;93711.91;;;20.32;38.44
11077;BME280;5591;42.626;23.380;2024-02-23T13:09:49;93708.91;;;20.80;37.82
11077;BME280;5591;42.626;23.380;2024-02-23T13:12:16;93692.34;;;20.73;37.61
11077;BME280;5591;42.626;23.380;2024-02-23T13:14:43;93707.34;;;20.94;37.12
11077;BME280;5591;42.626;23.380;2024-02-23T13:17:10;93704.84;;;20.67;37.24
11077;BME280;5591;42.626;23.380;2024-02-23T13:19:36;93700.84;;;20.60;37.51
11077;BME280;5591;42.626;23.380;2024-02-23T13:22:03;93702.56;;;20.96;37.95
11077;BME280;5591;42.626;23.380;2024-02-23T13:24:30;93698.06;;;21.31;38.09
11077;BME280;5591;42.626;23.380;2024-02-23T13:26:58;93697.25;;;21.11;38.15
11077;BME280;5591;42.626;23.380;2024-02-23T13:29:24;93692.69;;;20.96;38.25
11077;BME280;5591;42.626;23.380;2024-02-23T13:31:51;93703.66;;;21.10;37.65
11077;BME280;5591;42.626;23.380;2024-02-23T13:34:18;93702.72;;;20.69;38.08
11077;BME280;5591;42.626;23.380;2024-02-23T13:36:45;93700.78;;;19.99;38.91
11077;BME280;5591;42.626;23.380;2024-02-23T13:39:12;93709.25;;;19.91;38.18
11077;BME280;5591;42.626;23.380;2024-02-23T13:41:39;93718.19;;;20.11;38.44
11077;BME280;5591;42.626;23.380;2024-02-23T13:44:07;93758.16;;;20.57;38.49